createdAt,value
2023-01-03T00:01:20.993Z,7.50
2023-01-03T00:03:47.694Z,3.75
2023-01-03T00:06:18.311Z,3.72
2023-01-03T00:08:45.298Z,5.18
2023-01-03T00:11:14.511Z,9.27
2023-01-03T00:13:42.340Z,4.47
2023-01-03T00:16:20.216Z,6.60
2023-01-03T00:18:47.982Z,8.35
2023-01-03T00:21:14.568Z,5.70
2023-01-03T00:23:41.186Z,6.32
2023-01-03T00:26:12.267Z,6.10
2023-01-03T00:28:39.114Z,5.13
2023-01-03T00:31:10.750Z,4.72
2023-01-03T00:33:39.487Z,4.30
2023-01-03T00:36:08.416Z,8.98
2023-01-03T00:38:35.874Z,7.78
2023-01-03T00:41:11.124Z,4.85
2023-01-03T00:43:38.891Z,5.65
2023-01-03T00:46:06.680Z,8.32
2023-01-03T00:48:33.863Z,6.60
2023-01-03T00:51:15.015Z,5.82
2023-01-03T00:53:42.528Z,6.28
2023-01-03T00:56:12.233Z,6.57
2023-01-03T00:58:39.127Z,9.55
2023-01-03T01:01:12.256Z,7.57
2023-01-03T01:03:42.257Z,7.25
2023-01-03T01:06:25.176Z,7.50
2023-01-03T01:08:54.712Z,5.95
2023-01-03T01:11:21.993Z,5.88
2023-01-03T01:13:49.588Z,7.20
2023-01-03T01:16:19.298Z,5.95
2023-01-03T01:18:47.826Z,5.45
2023-01-03T01:21:20.967Z,5.28
2023-01-03T01:23:47.924Z,6.82
2023-01-03T01:26:19.211Z,8.98
2023-01-03T01:28:46.823Z,10.95
2023-01-03T01:31:16.983Z,8.27
2023-01-03T01:33:44.512Z,6.95
2023-01-03T01:36:17.247Z,4.28
2023-01-03T01:38:45.473Z,10.40
2023-01-03T01:41:36.791Z,7.93
2023-01-03T01:44:22.468Z,7.80
2023-01-03T01:46:49.748Z,7.90
2023-01-03T01:49:21.749Z,4.70
2023-01-03T01:51:48.464Z,9.02
2023-01-03T01:54:15.788Z,5.63
2023-01-03T01:56:51.418Z,5.57
2023-01-03T01:59:18.045Z,6.70
2023-01-03T02:01:47.654Z,10.45
2023-01-03T02:04:19.320Z,5.82
2023-01-03T02:06:45.984Z,9.00
2023-01-03T02:09:12.879Z,5.35
2023-01-03T02:12:17.483Z,7.22
2023-01-03T02:15:05.129Z,13.65
2023-01-03T02:17:40.912Z,5.57
2023-01-03T02:20:19.451Z,10.02
2023-01-03T02:22:58.380Z,8.38
2023-01-03T02:25:45.686Z,5.28
2023-01-03T02:28:35.156Z,10.07
2023-01-03T02:31:12.741Z,5.50
2023-01-03T02:33:53.786Z,6.60
2023-01-03T02:36:47.684Z,11.57
2023-01-03T02:39:23.626Z,7.10
2023-01-03T02:42:17.181Z,7.05
2023-01-03T02:45:36.022Z,5.30
2023-01-03T02:48:17.583Z,5.88
2023-01-03T02:50:49.925Z,6.80
2023-01-03T02:53:25.153Z,8.45
2023-01-03T02:55:53.392Z,6.65
2023-01-03T02:58:26.886Z,13.15
2023-01-03T03:00:56.111Z,15.82
2023-01-03T03:03:28.855Z,9.07
2023-01-03T03:06:07.271Z,8.90
2023-01-03T03:08:34.172Z,13.55
2023-01-03T03:11:19.396Z,10.10
2023-01-03T03:13:51.409Z,9.70
2023-01-03T03:19:38.566Z,8.30
2023-01-03T03:22:29.825Z,10.38
2023-01-03T03:24:59.783Z,5.05
2023-01-03T03:27:48.327Z,8.70
2023-01-03T03:30:18.061Z,11.93
2023-01-03T03:32:48.655Z,8.43
2023-01-03T03:35:19.410Z,12.90
2023-01-03T03:37:48.311Z,7.55
2023-01-03T03:40:33.722Z,10.75
2023-01-03T03:43:34.923Z,8.43
2023-01-03T03:46:10.358Z,9.05
2023-01-03T03:49:07.307Z,9.02
2023-01-03T03:51:36.879Z,12.55
2023-01-03T03:54:10.827Z,8.35
2023-01-03T03:56:40.805Z,8.77
2023-01-03T03:59:09.508Z,9.30
2023-01-03T04:01:39.959Z,12.35
2023-01-03T04:04:12.489Z,14.30
2023-01-03T04:06:44.311Z,7.80
2023-01-03T04:09:12.155Z,12.13
2023-01-03T04:11:38.835Z,8.90
2023-01-03T04:14:05.415Z,11.23
2023-01-03T04:16:32.083Z,9.18
2023-01-03T04:18:58.827Z,9.20
2023-01-03T04:21:25.868Z,12.38
2023-01-03T04:23:52.454Z,13.05
2023-01-03T04:26:19.063Z,13.27
2023-01-03T04:28:45.627Z,9.45
2023-01-03T04:31:12.376Z,13.27
2023-01-03T04:33:39.050Z,14.48
2023-01-03T04:36:05.790Z,9.80
2023-01-03T04:38:32.486Z,9.48
2023-01-03T04:41:06.989Z,9.10
2023-01-03T04:43:52.510Z,7.35
2023-01-03T04:46:19.709Z,11.27
2023-01-03T04:48:46.353Z,7.63
2023-01-03T04:51:14.512Z,6.95
2023-01-03T04:53:41.074Z,7.60
2023-01-03T04:56:08.062Z,11.25
2023-01-03T04:58:35.047Z,9.63
2023-01-03T05:01:04.441Z,6.57
2023-01-03T05:03:31.636Z,8.30
2023-01-03T05:06:03.072Z,11.50
2023-01-03T05:08:29.925Z,8.35
2023-01-03T05:10:56.988Z,10.65
2023-01-03T05:13:23.588Z,10.30
2023-01-03T05:15:50.230Z,15.05
2023-01-03T05:18:17.062Z,10.75
2023-01-03T05:21:02.856Z,11.02
2023-01-03T05:23:47.841Z,8.95
2023-01-03T05:26:16.616Z,9.85
2023-01-03T05:28:46.496Z,10.93
2023-01-03T05:31:13.309Z,11.27
2023-01-03T05:33:41.315Z,9.25
2023-01-03T05:36:08.954Z,12.93
2023-01-03T05:38:36.204Z,11.65
2023-01-03T05:41:02.822Z,10.07
2023-01-03T05:43:29.410Z,10.13
2023-01-03T05:45:56.211Z,12.27
2023-01-03T05:48:23.054Z,13.95
2023-01-03T05:50:52.562Z,10.40
2023-01-03T05:53:19.215Z,10.18
2023-01-03T05:55:45.861Z,11.48
2023-01-03T05:58:12.988Z,3.40
2023-01-03T06:00:40.202Z,6.97
2023-01-03T06:03:07.679Z,9.18
2023-01-03T06:05:34.393Z,6.00
2023-01-03T06:08:02.116Z,9.98
2023-01-03T06:10:29.066Z,5.28
2023-01-03T06:12:55.855Z,8.43
2023-01-03T06:15:22.488Z,7.85
2023-01-03T06:17:57.507Z,7.03
2023-01-03T06:20:26.560Z,5.72
2023-01-03T06:22:54.706Z,6.07
2023-01-03T06:25:22.096Z,14.15
2023-01-03T06:27:48.788Z,8.05
2023-01-03T06:30:15.925Z,9.52
2023-01-03T06:32:43.361Z,9.02
2023-01-03T06:35:10.349Z,8.95
2023-01-03T06:37:37.027Z,9.75
2023-01-03T06:40:04.262Z,6.22
2023-01-03T06:42:45.258Z,5.25
2023-01-03T06:45:32.693Z,3.03
2023-01-03T06:48:23.663Z,6.43
2023-01-03T06:51:09.566Z,7.22
2023-01-03T06:53:39.304Z,8.00
2023-01-03T06:56:06.445Z,7.25
2023-01-03T06:58:33.299Z,7.68
2023-01-03T07:01:04.786Z,9.68
2023-01-03T07:03:32.722Z,6.80
2023-01-03T07:05:59.371Z,6.93
2023-01-03T07:08:26.003Z,8.25
2023-01-03T07:10:52.771Z,8.75
2023-01-03T07:13:38.211Z,7.25
2023-01-03T07:16:05.051Z,9.43
2023-01-03T07:18:32.060Z,6.25
2023-01-03T07:20:58.708Z,6.70
2023-01-03T07:23:25.282Z,7.07
2023-01-03T07:25:55.535Z,10.35
2023-01-03T07:28:22.162Z,7.18
2023-01-03T07:30:48.820Z,8.75
2023-01-03T07:33:16.940Z,12.15
2023-01-03T07:35:43.986Z,6.53
2023-01-03T07:38:12.656Z,15.15
2023-01-03T07:40:39.746Z,8.02
2023-01-03T07:43:25.309Z,10.65
2023-01-03T07:45:51.997Z,7.10
2023-01-03T07:48:18.674Z,7.25
2023-01-03T07:50:45.436Z,8.30
2023-01-03T07:53:17.126Z,6.70
2023-01-03T07:55:48.032Z,9.15
2023-01-03T07:58:14.738Z,11.13
2023-01-03T08:00:42.198Z,13.82
2023-01-03T08:09:12.080Z,7.10
2023-01-03T08:11:58.135Z,9.27
2023-01-03T08:14:26.487Z,9.20
2023-01-03T08:16:54.461Z,9.00
2023-01-03T08:19:21.027Z,7.90
2023-01-03T08:21:47.648Z,5.72
2023-01-03T08:24:14.261Z,8.82
2023-01-03T08:26:40.906Z,10.32
2023-01-03T08:29:07.834Z,12.18
2023-01-03T08:31:38.065Z,7.20
2023-01-03T08:34:12.040Z,11.30
2023-01-03T08:36:49.512Z,12.23
2023-01-03T08:39:19.888Z,8.68
2023-01-03T08:41:52.971Z,9.32
2023-01-03T08:44:19.586Z,6.45
2023-01-03T08:46:51.387Z,9.60
2023-01-03T08:49:19.289Z,5.45
2023-01-03T08:51:46.131Z,11.10
2023-01-03T08:54:12.898Z,7.20
2023-01-03T08:56:40.207Z,7.28
2023-01-03T08:59:07.242Z,9.40
2023-01-03T09:01:34.211Z,8.43
2023-01-03T09:04:01.027Z,8.40
2023-01-03T09:06:27.703Z,10.00
2023-01-03T09:08:54.277Z,7.30
2023-01-03T09:11:20.833Z,3.83
2023-01-03T09:13:47.641Z,9.15
2023-01-03T09:16:16.560Z,6.75
2023-01-03T09:18:43.726Z,8.32
2023-01-03T09:21:10.493Z,10.93
2023-01-03T09:23:37.676Z,5.20
2023-01-03T09:26:05.485Z,12.63
2023-01-03T09:28:32.329Z,7.43
2023-01-03T09:30:59.007Z,7.40
2023-01-03T09:33:25.907Z,7.45
2023-01-03T09:35:54.574Z,10.13
2023-01-03T09:38:22.657Z,7.32
2023-01-03T09:41:07.957Z,7.93
2023-01-03T09:44:01.244Z,9.30
2023-01-03T09:46:29.524Z,7.85
2023-01-03T09:48:56.999Z,6.70
2023-01-03T09:51:52.955Z,8.73
2023-01-03T09:54:44.026Z,8.65
2023-01-03T09:57:44.381Z,7.53
2023-01-03T10:00:35.601Z,5.63
2023-01-03T10:03:51.150Z,5.32
2023-01-03T10:06:43.678Z,5.05
2023-01-03T10:09:47.720Z,7.40
2023-01-03T10:12:20.150Z,5.13
2023-01-03T10:14:52.938Z,4.10
2023-01-03T10:17:27.636Z,8.10
2023-01-03T10:20:00.343Z,6.43
2023-01-03T10:22:28.813Z,8.60
2023-01-03T10:25:04.178Z,8.20
2023-01-03T10:27:43.780Z,6.40
2023-01-03T10:30:16.416Z,7.75
2023-01-03T10:32:56.713Z,10.45
2023-01-03T10:35:34.774Z,7.35
2023-01-03T10:38:01.529Z,9.52
2023-01-03T10:40:58.502Z,2.95
2023-01-03T10:43:29.769Z,9.80
2023-01-03T10:45:57.871Z,7.30
2023-01-03T10:48:52.667Z,8.43
2023-01-03T10:51:28.955Z,10.30
2023-01-03T10:54:00.144Z,11.02
2023-01-03T10:56:30.175Z,6.63
2023-01-03T10:59:12.071Z,12.52
2023-01-03T11:01:39.654Z,4.70
2023-01-03T11:04:15.838Z,7.28
2023-01-03T11:06:58.700Z,10.23
2023-01-03T11:09:31.658Z,4.25
2023-01-03T11:12:23.249Z,9.10
2023-01-03T11:14:51.795Z,8.48
2023-01-03T11:17:21.471Z,8.07
2023-01-03T11:19:49.263Z,9.23
2023-01-03T11:22:45.862Z,9.15
2023-01-03T11:25:38.851Z,8.65
2023-01-03T11:28:15.374Z,7.55
2023-01-03T11:30:59.333Z,6.80
2023-01-03T11:34:08.208Z,10.82
2023-01-03T11:36:49.013Z,9.27
2023-01-03T11:39:53.262Z,7.75
2023-01-03T11:42:37.219Z,9.75
2023-01-03T11:45:35.047Z,7.55
2023-01-03T11:48:23.293Z,9.02
2023-01-03T11:51:18.875Z,7.55
2023-01-03T11:54:01.702Z,10.00
2023-01-03T11:56:28.799Z,13.80
2023-01-03T11:59:04.283Z,11.48
2023-01-03T12:01:51.146Z,9.30
2023-01-03T12:04:17.815Z,9.43
2023-01-03T12:07:46.976Z,7.57
2023-01-03T12:10:10.347Z,11.27
2023-01-03T12:13:23.851Z,8.23
2023-01-03T12:16:04.584Z,10.52
2023-01-03T12:18:55.717Z,8.30
2023-01-03T12:21:34.296Z,8.50
2023-01-03T12:24:15.904Z,11.90
2023-01-03T12:26:47.827Z,10.50
2023-01-03T12:29:28.886Z,8.93
2023-01-03T12:32:14.947Z,8.30
2023-01-03T12:35:03.174Z,10.27
2023-01-03T12:37:38.611Z,6.47
2023-01-03T12:40:23.020Z,6.93
2023-01-03T12:43:04.519Z,7.88
2023-01-03T12:45:56.488Z,8.05
2023-01-03T12:48:29.091Z,11.07
2023-01-03T12:50:56.170Z,11.32
2023-01-03T12:53:43.201Z,7.20
2023-01-03T12:56:28.981Z,11.68
2023-01-03T12:59:40.509Z,12.68
2023-01-03T13:02:18.362Z,10.80
2023-01-03T13:04:47.868Z,8.18
2023-01-03T13:07:29.040Z,11.05
2023-01-03T13:10:01.344Z,12.65
2023-01-03T13:12:32.467Z,9.10
2023-01-03T13:15:27.406Z,8.65
2023-01-03T13:18:21.145Z,15.55
2023-01-03T13:20:52.541Z,9.38
2023-01-03T13:23:31.035Z,15.98
2023-01-03T13:26:04.977Z,6.70
2023-01-03T13:28:35.281Z,14.77
2023-01-03T13:31:35.854Z,14.00
2023-01-03T13:34:32.124Z,13.00
2023-01-03T13:37:07.984Z,9.90
2023-01-03T13:39:38.740Z,14.43
2023-01-03T13:42:05.751Z,10.10
2023-01-03T13:44:32.381Z,14.27
2023-01-03T13:46:59.380Z,10.90
2023-01-03T13:49:28.925Z,10.23
2023-01-03T13:51:59.624Z,11.02
2023-01-03T13:54:35.175Z,6.13
2023-01-03T13:57:25.998Z,10.15
2023-01-03T13:59:53.395Z,8.38
2023-01-03T14:02:47.655Z,11.88
2023-01-03T14:05:39.040Z,10.82
2023-01-03T14:08:05.604Z,12.80
2023-01-03T14:10:38.125Z,12.80
2023-01-03T14:13:07.666Z,9.73
2023-01-03T14:15:34.610Z,12.23
2023-01-03T14:18:12.701Z,9.57
2023-01-03T14:20:43.666Z,8.88
2023-01-03T14:26:15.666Z,14.98
2023-01-03T14:28:49.297Z,12.65
2023-01-03T14:31:23.373Z,12.75
2023-01-03T14:33:53.679Z,10.65
2023-01-03T14:36:20.357Z,7.95
2023-01-03T14:39:07.173Z,8.85
2023-01-03T14:41:39.340Z,10.05
2023-01-03T14:44:16.663Z,8.38
2023-01-03T14:46:53.550Z,7.97
2023-01-03T14:49:43.804Z,9.15
2023-01-03T14:52:27.425Z,5.50
2023-01-03T14:55:01.640Z,7.60
2023-01-03T14:57:30.898Z,12.00
2023-01-03T15:00:01.716Z,13.68
2023-01-03T15:02:35.334Z,13.00
2023-01-03T15:05:02.951Z,9.52
2023-01-03T15:07:38.892Z,11.20
2023-01-03T15:10:37.339Z,6.22
2023-01-03T15:13:05.177Z,8.95
2023-01-03T15:15:39.319Z,13.85
2023-01-03T15:18:09.723Z,8.13
2023-01-03T15:20:43.791Z,8.85
2023-01-03T15:23:36.535Z,9.07
2023-01-03T15:26:04.456Z,9.70
2023-01-03T15:28:50.036Z,7.30
2023-01-03T15:31:46.348Z,9.27
2023-01-03T15:34:40.600Z,10.77
2023-01-03T15:37:17.086Z,11.85
2023-01-03T15:39:52.816Z,10.32
2023-01-03T15:42:58.686Z,10.35
2023-01-03T15:45:35.498Z,12.35
2023-01-03T15:48:04.932Z,11.65
2023-01-03T15:50:41.463Z,7.03
2023-01-03T15:53:19.581Z,8.10
2023-01-03T15:55:46.674Z,12.05
2023-01-03T15:58:13.233Z,11.13
2023-01-03T16:00:40.011Z,8.05
2023-01-03T16:03:13.934Z,12.15
2023-01-03T16:05:40.699Z,11.50
2023-01-03T16:08:25.339Z,8.45
2023-01-03T16:10:52.762Z,14.18
2023-01-03T16:13:21.013Z,11.43
2023-01-03T16:15:48.170Z,28.33
2023-01-03T16:18:17.831Z,12.50
2023-01-03T16:20:44.834Z,27.15
2023-01-03T16:23:29.423Z,19.40
2023-01-03T16:25:57.198Z,24.67
2023-01-03T16:28:25.339Z,10.90
2023-01-03T16:31:02.674Z,11.88
2023-01-03T16:33:36.634Z,11.45
2023-01-03T16:36:04.509Z,9.48
2023-01-03T16:38:33.473Z,13.63
2023-01-03T16:41:00.583Z,13.35
2023-01-03T16:43:27.912Z,12.40
2023-01-03T16:45:58.869Z,9.18
2023-01-03T16:48:29.185Z,12.23
2023-01-03T16:50:55.841Z,14.60
2023-01-03T16:53:52.214Z,10.30
2023-01-03T16:56:18.914Z,11.02
2023-01-03T16:58:45.512Z,13.32
2023-01-03T17:01:13.797Z,11.50
2023-01-03T17:03:42.226Z,12.88
2023-01-03T17:06:37.388Z,10.60
2023-01-03T17:09:12.590Z,11.18
2023-01-03T17:11:39.616Z,11.73
2023-01-03T17:14:06.520Z,10.07
2023-01-03T17:16:34.051Z,12.77
2023-01-03T17:19:00.727Z,10.70
2023-01-03T17:21:33.223Z,13.18
2023-01-03T17:24:08.283Z,12.77
2023-01-03T17:26:35.961Z,11.57
2023-01-03T17:29:06.017Z,9.73
2023-01-03T17:31:33.014Z,15.40
2023-01-03T17:34:00.212Z,9.45
2023-01-03T17:36:31.766Z,12.15
2023-01-03T17:39:02.987Z,9.52
2023-01-03T17:41:30.364Z,14.27
2023-01-03T17:43:56.936Z,12.23
2023-01-03T17:46:44.914Z,11.68
2023-01-03T17:49:25.645Z,12.77
2023-01-03T17:51:55.931Z,8.27
2023-01-03T17:54:28.873Z,13.38
2023-01-03T17:56:59.468Z,7.05
2023-01-03T17:59:27.030Z,10.60
2023-01-03T18:01:54.765Z,16.05
2023-01-03T18:04:38.262Z,12.00
2023-01-03T18:07:18.568Z,10.23
2023-01-03T18:09:45.186Z,12.55
2023-01-03T18:12:17.852Z,10.05
2023-01-03T18:14:45.648Z,10.27
2023-01-03T18:17:24.311Z,9.90
2023-01-03T18:19:50.890Z,14.75
2023-01-03T18:22:18.068Z,12.80
2023-01-03T18:24:44.769Z,14.10
2023-01-03T18:27:12.549Z,11.77
2023-01-03T18:29:39.417Z,10.30
2023-01-03T18:32:17.806Z,9.48
2023-01-03T18:34:44.347Z,9.30
2023-01-03T18:37:10.962Z,13.63
2023-01-03T18:39:37.582Z,11.80
2023-01-03T18:42:22.870Z,14.15
2023-01-03T18:44:49.623Z,11.70
2023-01-03T18:47:17.169Z,12.95
2023-01-03T18:49:43.762Z,13.15
2023-01-03T18:52:24.776Z,10.80
2023-01-03T18:54:52.420Z,11.65
2023-01-03T18:57:19.654Z,11.00
2023-01-03T18:59:46.527Z,10.80
2023-01-03T19:02:19.037Z,13.90
2023-01-03T19:04:51.114Z,15.88
2023-01-03T19:07:37.000Z,15.63
2023-01-03T19:10:07.929Z,14.90
2023-01-03T19:12:38.496Z,10.85
2023-01-03T19:15:21.860Z,9.88
2023-01-03T19:17:49.069Z,11.13
2023-01-03T19:20:16.097Z,13.80
2023-01-03T19:22:46.632Z,20.23
2023-01-03T19:25:20.047Z,16.35
2023-01-03T19:27:49.093Z,13.10
2023-01-03T19:30:24.187Z,14.10
2023-01-03T19:32:55.904Z,19.65
2023-01-03T19:35:23.507Z,11.52
2023-01-03T19:37:51.121Z,14.73
2023-01-03T19:40:21.342Z,12.27
2023-01-03T19:42:54.499Z,16.25
2023-01-03T19:45:37.486Z,16.27
2023-01-03T19:48:14.896Z,14.77
2023-01-03T19:50:41.594Z,10.07
2023-01-03T19:53:08.251Z,15.50
2023-01-03T19:55:39.081Z,12.90
2023-01-03T19:58:15.079Z,13.55
2023-01-03T20:00:41.764Z,16.50
2023-01-03T20:03:36.061Z,18.88
2023-01-03T20:06:02.934Z,16.13
2023-01-03T20:08:29.545Z,15.20
2023-01-03T20:10:56.980Z,24.40
2023-01-03T20:13:27.404Z,16.40
2023-01-03T20:15:57.437Z,13.68
2023-01-03T20:18:28.887Z,16.38
2023-01-03T20:20:58.958Z,15.30
2023-01-03T20:23:29.942Z,17.95
2023-01-03T20:25:56.501Z,18.02
2023-01-03T20:28:31.210Z,31.55
2023-01-03T20:30:59.212Z,78.22
2023-01-03T20:33:26.064Z,68.15
2023-01-03T20:36:11.199Z,21.15
2023-01-03T20:38:45.085Z,17.55
2023-01-03T20:41:14.539Z,13.32
2023-01-03T20:43:42.901Z,18.42
2023-01-03T20:46:17.394Z,14.35
2023-01-03T20:48:44.648Z,12.63
2023-01-03T20:51:13.836Z,14.43
2023-01-03T20:53:42.992Z,16.20
2023-01-03T20:56:12.998Z,13.98
2023-01-03T20:58:40.120Z,21.85
2023-01-03T21:01:10.354Z,12.10
2023-01-03T21:03:38.253Z,10.65
2023-01-03T21:06:19.618Z,12.38
2023-01-03T21:08:55.380Z,8.20
2023-01-03T21:11:35.107Z,10.55
2023-01-03T21:14:02.311Z,8.23
2023-01-03T21:16:36.623Z,8.70
2023-01-03T21:19:08.203Z,16.48
2023-01-03T21:21:35.105Z,6.05
2023-01-03T21:24:02.097Z,10.48
2023-01-03T21:26:28.726Z,9.00
2023-01-03T21:28:55.557Z,9.73
2023-01-03T21:31:23.119Z,9.65
2023-01-03T21:33:50.186Z,12.15
2023-01-03T21:36:28.763Z,9.10
2023-01-03T21:38:56.488Z,8.98
2023-01-03T21:41:31.854Z,10.43
2023-01-03T21:44:04.438Z,7.03
2023-01-03T21:46:31.441Z,14.25
2023-01-03T21:48:58.140Z,9.63
2023-01-03T21:51:35.441Z,10.00
2023-01-03T21:54:06.326Z,12.00
2023-01-03T21:56:32.936Z,10.98
2023-01-03T21:58:59.470Z,9.45
2023-01-03T22:01:26.213Z,8.55
2023-01-03T22:04:11.494Z,12.93
2023-01-03T22:06:38.446Z,13.65
2023-01-03T22:09:06.347Z,10.88
2023-01-03T22:11:33.001Z,12.55
2023-01-03T22:14:00.954Z,16.85
2023-01-03T22:16:27.811Z,10.15
2023-01-03T22:18:54.436Z,8.55
2023-01-03T22:21:21.337Z,12.15
2023-01-03T22:23:47.915Z,9.40
2023-01-03T22:26:16.290Z,11.43
2023-01-03T22:28:45.399Z,12.35
2023-01-03T22:31:16.533Z,12.82
2023-01-03T22:33:44.725Z,15.80
2023-01-03T22:36:11.843Z,9.32
2023-01-03T22:38:39.428Z,8.85
2023-01-03T22:41:13.585Z,9.18
2023-01-03T22:43:40.227Z,10.60
2023-01-03T22:46:09.171Z,10.32
2023-01-03T22:48:36.343Z,9.68
2023-01-03T22:51:09.302Z,11.45
2023-01-03T22:53:37.249Z,8.52
2023-01-03T22:56:06.445Z,9.15
2023-01-03T22:58:34.354Z,11.05
2023-01-03T23:01:09.439Z,10.40
2023-01-03T23:03:36.275Z,8.30
2023-01-03T23:06:07.399Z,14.13
2023-01-03T23:08:35.498Z,13.97
2023-01-03T23:11:34.857Z,8.77
2023-01-03T23:14:10.597Z,8.23
2023-01-03T23:16:38.147Z,10.98
2023-01-03T23:19:07.659Z,9.80
2023-01-03T23:21:35.224Z,11.57
2023-01-03T23:24:01.933Z,9.57
2023-01-03T23:26:28.705Z,8.73
2023-01-03T23:28:56.713Z,9.65
2023-01-03T23:31:23.584Z,8.20
2023-01-03T23:33:50.430Z,9.18
2023-01-03T23:36:17.603Z,9.40
2023-01-03T23:38:44.160Z,9.32
2023-01-03T23:41:10.764Z,7.78
2023-01-03T23:43:38.193Z,12.93
2023-01-03T23:46:06.137Z,9.70
2023-01-03T23:48:33.258Z,6.97
2023-01-03T23:51:05.060Z,8.85
2023-01-03T23:53:32.049Z,9.18
2023-01-03T23:55:59.000Z,10.80
2023-01-03T23:58:25.598Z,8.15
